createdAt,value
2016-10-24T00:00:51.114Z,0
2016-10-24T00:01:51.409Z,0
2016-10-24T00:02:51.853Z,0
2016-10-24T00:03:51.065Z,0
2016-10-24T00:04:51.050Z,0
2016-10-24T00:05:51.033Z,0
2016-10-24T00:06:51.014Z,0
2016-10-24T00:07:51.309Z,0
2016-10-24T00:08:51.291Z,0
2016-10-24T00:09:50.959Z,0
2016-10-24T00:10:50.951Z,0
2016-10-24T00:11:51.243Z,0
2016-10-24T00:12:50.913Z,0
2016-10-24T00:13:50.899Z,0
2016-10-24T00:14:50.879Z,0
2016-10-24T00:15:50.867Z,0
2016-10-24T00:16:50.841Z,0
2016-10-24T00:17:51.138Z,0
2016-10-24T00:18:50.808Z,0
2016-10-24T00:19:51.106Z,0
2016-10-24T00:20:50.778Z,0
2016-10-24T00:21:50.762Z,0
2016-10-24T00:22:50.743Z,0
2016-10-24T00:23:50.723Z,0
2016-10-24T00:24:50.710Z,0
2016-10-24T00:25:50.689Z,0
2016-10-24T00:26:50.675Z,0
2016-10-24T00:27:50.662Z,0
2016-10-24T00:28:50.640Z,0
2016-10-24T00:29:50.629Z,0
2016-10-24T00:30:50.914Z,0
2016-10-24T00:31:50.596Z,0
2016-10-24T00:32:50.572Z,0
2016-10-24T00:33:50.865Z,0
2016-10-24T00:34:50.539Z,0
2016-10-24T00:35:50.524Z,0
2016-10-24T00:36:50.505Z,0
2016-10-24T00:37:50.490Z,0
2016-10-24T00:38:50.473Z,0
2016-10-24T00:39:50.490Z,0
2016-10-24T00:40:50.752Z,0
2016-10-24T00:41:50.417Z,0
2016-10-24T00:42:50.404Z,0
2016-10-24T00:43:50.700Z,0
2016-10-24T00:44:50.716Z,0
2016-10-24T00:45:50.357Z,0
2016-10-24T00:46:50.339Z,0
2016-10-24T00:47:50.321Z,0
2016-10-24T00:48:50.307Z,0
2016-10-24T00:49:50.915Z,0
2016-10-24T00:50:50.270Z,0
2016-10-24T00:51:50.255Z,0
2016-10-24T00:52:50.585Z,0
2016-10-24T00:53:50.217Z,0
2016-10-24T00:54:50.199Z,0
2016-10-24T00:55:50.183Z,0
2016-10-24T00:56:50.166Z,0
2016-10-24T00:57:50.158Z,0
2016-10-24T00:58:50.139Z,0
2016-10-24T00:59:50.149Z,0
2016-10-24T01:00:50.101Z,0
2016-10-24T01:01:50.088Z,0
2016-10-24T01:02:50.064Z,0
2016-10-24T01:03:50.410Z,0
2016-10-24T01:04:50.064Z,0
2016-10-24T01:05:50.366Z,0
2016-10-24T01:06:50.319Z,0
2016-10-24T01:07:49.990Z,0
2016-10-24T01:08:49.968Z,0
2016-10-24T01:09:49.947Z,0
2016-10-24T01:10:49.925Z,0
2016-10-24T01:11:49.906Z,0
2016-10-24T01:12:49.895Z,0
2016-10-24T01:13:49.876Z,0
2016-10-24T01:14:49.859Z,0
2016-10-24T01:15:50.160Z,0
2016-10-24T01:16:49.828Z,0
2016-10-24T01:17:50.119Z,0
2016-10-24T01:18:49.791Z,0
2016-10-24T01:19:50.399Z,0
2016-10-24T01:20:49.756Z,0
2016-10-24T01:21:50.047Z,0
2016-10-24T01:22:49.722Z,0
2016-10-24T01:23:49.711Z,0
2016-10-24T01:24:49.690Z,0
2016-10-24T01:25:50.081Z,0
2016-10-24T01:26:49.717Z,0
2016-10-24T01:27:49.954Z,0
2016-10-24T01:28:49.950Z,0
2016-10-24T01:29:49.604Z,0
2016-10-24T01:30:49.900Z,0
2016-10-24T01:31:49.578Z,0
2016-10-24T01:32:49.553Z,0
2016-10-24T01:33:49.535Z,0
2016-10-24T01:34:49.538Z,0
2016-10-24T01:35:49.505Z,0
2016-10-24T01:36:49.496Z,0
2016-10-24T01:37:49.475Z,0
2016-10-24T01:38:49.772Z,0
2016-10-24T01:39:49.759Z,0
2016-10-24T01:40:49.416Z,0
2016-10-24T01:41:49.713Z,0
2016-10-24T01:42:49.699Z,0
2016-10-24T01:43:49.371Z,0
2016-10-24T01:44:49.352Z,0
2016-10-24T01:45:49.340Z,0
2016-10-24T01:46:49.322Z,0
2016-10-24T01:47:49.307Z,0
2016-10-24T01:48:49.489Z,0
2016-10-24T01:49:49.277Z,0
2016-10-24T01:50:49.250Z,0
2016-10-24T01:51:49.238Z,0
2016-10-24T01:52:49.217Z,0
2016-10-24T01:53:49.233Z,0
2016-10-24T01:54:49.182Z,0
2016-10-24T01:55:49.164Z,0
2016-10-24T01:56:49.152Z,0
2016-10-24T01:57:49.134Z,0
2016-10-24T01:58:49.113Z,0
2016-10-24T01:59:49.409Z,0
2016-10-24T02:00:49.090Z,0
2016-10-24T02:01:49.066Z,0
2016-10-24T02:02:49.048Z,0
2016-10-24T02:03:49.347Z,0
2016-10-24T02:04:49.014Z,0
2016-10-24T02:05:48.996Z,0
2016-10-24T02:06:48.985Z,0
2016-10-24T02:07:49.006Z,0
2016-10-24T02:08:48.942Z,0
2016-10-24T02:09:48.927Z,0
2016-10-24T02:10:48.913Z,0
2016-10-24T02:11:48.906Z,0
2016-10-24T02:12:49.507Z,0
2016-10-24T02:13:48.859Z,0
2016-10-24T02:14:48.847Z,0
2016-10-24T02:15:48.833Z,0
2016-10-24T02:16:49.162Z,0
2016-10-24T02:17:49.108Z,0
2016-10-24T02:18:48.784Z,0
2016-10-24T02:19:48.758Z,0
2016-10-24T02:20:48.741Z,0
2016-10-24T02:21:49.038Z,0
2016-10-24T02:22:48.716Z,0
2016-10-24T02:23:48.701Z,0
2016-10-24T02:24:48.673Z,0
2016-10-24T02:25:48.657Z,0
2016-10-24T02:26:48.645Z,0
2016-10-24T02:27:48.623Z,0
2016-10-24T02:28:48.939Z,0
2016-10-24T02:29:48.596Z,0
2016-10-24T02:30:48.575Z,0
2016-10-24T02:31:48.557Z,0
2016-10-24T02:32:48.541Z,0
2016-10-24T02:33:48.533Z,0
2016-10-24T02:34:48.562Z,0
2016-10-24T02:35:48.536Z,0
2016-10-24T02:36:48.472Z,0
2016-10-24T02:37:48.459Z,0
2016-10-24T02:38:48.442Z,0
2016-10-24T02:39:48.421Z,0
2016-10-24T02:40:48.403Z,0
2016-10-24T02:41:48.384Z,0
2016-10-24T02:42:48.370Z,0
2016-10-24T02:43:48.352Z,0
2016-10-24T02:44:48.705Z,0
2016-10-24T02:45:48.318Z,0
2016-10-24T02:46:48.299Z,0
2016-10-24T02:47:48.292Z,0
2016-10-24T02:48:48.268Z,0
2016-10-24T02:49:48.267Z,0
2016-10-24T02:50:48.243Z,0
2016-10-24T02:51:48.225Z,0
2016-10-24T02:52:48.201Z,0
2016-10-24T02:53:48.187Z,0
2016-10-24T02:54:48.165Z,0
2016-10-24T02:55:48.152Z,0
2016-10-24T02:56:48.134Z,0
2016-10-24T02:57:48.428Z,0
2016-10-24T02:58:48.103Z,0
2016-10-24T02:59:48.398Z,0
2016-10-24T03:00:48.069Z,0
2016-10-24T03:01:48.107Z,0
2016-10-24T03:02:48.411Z,0
2016-10-24T03:03:48.654Z,0
2016-10-24T03:04:48.319Z,0
2016-10-24T03:05:47.984Z,0
2016-10-24T03:06:48.281Z,0
2016-10-24T03:07:47.953Z,0
2016-10-24T03:08:47.931Z,0
2016-10-24T03:09:47.915Z,0
2016-10-24T03:10:47.896Z,0
2016-10-24T03:11:47.885Z,0
2016-10-24T03:12:47.871Z,0
2016-10-24T03:13:48.160Z,0
2016-10-24T03:14:47.837Z,0
2016-10-24T03:15:47.814Z,0
2016-10-24T03:16:48.115Z,0
2016-10-24T03:17:47.795Z,0
2016-10-24T03:18:47.772Z,0
2016-10-24T03:19:48.100Z,0
2016-10-24T03:20:47.765Z,0
2016-10-24T03:21:47.722Z,0
2016-10-24T03:22:47.697Z,0
2016-10-24T03:23:47.682Z,0
2016-10-24T03:24:47.673Z,0
2016-10-24T03:25:48.018Z,0
2016-10-24T03:26:47.635Z,0
2016-10-24T03:27:47.615Z,0
2016-10-24T03:28:47.603Z,0
2016-10-24T03:29:47.597Z,0
2016-10-24T03:30:47.890Z,0
2016-10-24T03:31:47.565Z,0
2016-10-24T03:32:47.852Z,0
2016-10-24T03:33:47.512Z,0
2016-10-24T03:34:47.502Z,0
2016-10-24T03:35:47.485Z,0
2016-10-24T03:36:47.466Z,0
2016-10-24T03:37:47.455Z,0
2016-10-24T03:38:47.441Z,0
2016-10-24T03:39:47.424Z,0
2016-10-24T03:40:47.395Z,0
2016-10-24T03:41:47.704Z,0
2016-10-24T03:42:47.371Z,0
2016-10-24T03:43:47.349Z,0
2016-10-24T03:44:47.642Z,0
2016-10-24T03:45:47.629Z,0
2016-10-24T03:46:47.607Z,0
2016-10-24T03:47:47.287Z,0
2016-10-24T03:48:47.472Z,0
2016-10-24T03:49:47.563Z,0
2016-10-24T03:50:47.231Z,0
2016-10-24T03:51:47.527Z,0
2016-10-24T03:52:47.213Z,0
2016-10-24T03:53:47.191Z,0
2016-10-24T03:54:47.486Z,0
2016-10-24T03:55:47.464Z,0
2016-10-24T03:56:47.136Z,0
2016-10-24T03:57:47.121Z,0
2016-10-24T03:58:47.096Z,0
2016-10-24T03:59:47.081Z,0
2016-10-24T04:00:47.066Z,0
2016-10-24T04:01:47.057Z,0
2016-10-24T04:02:47.657Z,0
2016-10-24T04:03:47.020Z,0
2016-10-24T04:04:47.001Z,0
2016-10-24T04:05:46.981Z,0
2016-10-24T04:06:46.963Z,0
2016-10-24T04:07:46.952Z,0
2016-10-24T04:08:46.977Z,0
2016-10-24T04:09:47.551Z,0
2016-10-24T04:10:46.903Z,0
2016-10-24T04:11:47.201Z,0
2016-10-24T04:12:46.868Z,0
2016-10-24T04:13:46.853Z,0
2016-10-24T04:14:47.172Z,0
2016-10-24T04:15:46.835Z,0
2016-10-24T04:16:46.808Z,0
2016-10-24T04:17:47.100Z,0
2016-10-24T04:18:46.777Z,0
2016-10-24T04:19:46.751Z,0
2016-10-24T04:20:46.733Z,0
2016-10-24T04:21:46.720Z,0
2016-10-24T04:22:46.700Z,0
2016-10-24T04:23:47.716Z,0
2016-10-24T04:24:47.025Z,0
2016-10-24T04:25:46.655Z,0
2016-10-24T04:26:46.643Z,0
2016-10-24T04:27:46.938Z,0
2016-10-24T04:28:46.613Z,0
2016-10-24T04:29:46.599Z,0
2016-10-24T04:30:46.572Z,0
2016-10-24T04:31:46.554Z,0
2016-10-24T04:32:46.534Z,0
2016-10-24T04:33:46.528Z,0
2016-10-24T04:34:46.507Z,0
2016-10-24T04:35:46.487Z,0
2016-10-24T04:36:46.824Z,0
2016-10-24T04:37:46.457Z,0
2016-10-24T04:38:46.443Z,0
2016-10-24T04:39:46.736Z,0
2016-10-24T04:40:46.401Z,0
2016-10-24T04:41:46.700Z,0
2016-10-24T04:42:46.375Z,0
2016-10-24T04:43:46.669Z,0
2016-10-24T04:44:46.345Z,0
2016-10-24T04:45:46.334Z,0
2016-10-24T04:46:46.311Z,0
2016-10-24T04:47:46.606Z,0
2016-10-24T04:48:46.585Z,0
2016-10-24T04:49:46.570Z,0
2016-10-24T04:50:46.234Z,0
2016-10-24T04:51:46.222Z,0
2016-10-24T04:52:46.517Z,0
2016-10-24T04:53:46.196Z,0
2016-10-24T04:54:46.169Z,0
2016-10-24T04:55:46.475Z,0
2016-10-24T04:56:46.139Z,0
2016-10-24T04:57:46.154Z,0
2016-10-24T04:58:46.108Z,0
2016-10-24T04:59:46.083Z,0
2016-10-24T05:00:46.077Z,0
2016-10-24T05:01:46.063Z,0
2016-10-24T05:02:46.194Z,0
2016-10-24T05:03:46.017Z,0
2016-10-24T05:04:46.317Z,0
2016-10-24T05:05:45.992Z,0
2016-10-24T05:06:45.969Z,0
2016-10-24T05:07:45.954Z,0
2016-10-24T05:08:45.943Z,0
2016-10-24T05:09:46.253Z,0
2016-10-24T05:10:46.221Z,0
2016-10-24T05:11:45.889Z,0
2016-10-24T05:12:45.873Z,0
2016-10-24T05:13:46.173Z,0
2016-10-24T05:14:45.845Z,0
2016-10-24T05:15:45.821Z,0
2016-10-24T05:16:46.123Z,0
2016-10-24T05:17:46.104Z,0
2016-10-24T05:18:46.084Z,0
2016-10-24T05:19:45.753Z,0
2016-10-24T05:20:45.743Z,0
2016-10-24T05:21:45.731Z,0
2016-10-24T05:22:45.704Z,0
2016-10-24T05:23:46.033Z,0
2016-10-24T05:24:45.697Z,0
2016-10-24T05:25:45.660Z,0
2016-10-24T05:26:45.691Z,0
2016-10-24T05:27:45.629Z,0
2016-10-24T05:28:45.606Z,0
2016-10-24T05:29:45.586Z,0
2016-10-24T05:30:45.575Z,0
2016-10-24T05:31:45.875Z,0
2016-10-24T05:32:45.873Z,0
2016-10-24T05:33:45.851Z,0
2016-10-24T05:34:45.507Z,0
2016-10-24T05:35:45.494Z,0
2016-10-24T05:36:45.470Z,0
2016-10-24T05:37:45.459Z,0
2016-10-24T05:38:45.760Z,0
2016-10-24T05:39:45.741Z,0
2016-10-24T05:40:45.408Z,0
2016-10-24T05:41:45.706Z,0
2016-10-24T05:42:45.375Z,0
2016-10-24T05:43:45.674Z,4
2016-10-24T05:44:45.655Z,0
2016-10-24T05:45:45.328Z,4
2016-10-24T05:46:45.311Z,4
2016-10-24T05:47:45.294Z,8
2016-10-24T05:48:46.000Z,4
2016-10-24T05:49:45.259Z,8
2016-10-24T05:50:45.254Z,4
2016-10-24T05:51:45.534Z,8
2016-10-24T05:52:45.210Z,8
2016-10-24T05:53:45.192Z,8
2016-10-24T05:54:45.491Z,12
2016-10-24T05:55:45.198Z,12
2016-10-24T05:56:45.155Z,16
2016-10-24T05:57:45.132Z,16
2016-10-24T05:58:45.116Z,20
2016-10-24T05:59:45.351Z,24
2016-10-24T06:00:45.093Z,32
2016-10-24T06:01:45.067Z,32
2016-10-24T06:02:45.365Z,40
2016-10-24T06:03:45.025Z,44
2016-10-24T06:04:45.015Z,48
2016-10-24T06:05:45.009Z,60
2016-10-24T06:06:44.998Z,64
2016-10-24T06:07:44.964Z,68
2016-10-24T06:08:44.942Z,72
2016-10-24T06:09:44.936Z,72
2016-10-24T06:10:44.911Z,76
2016-10-24T06:11:45.209Z,76
2016-10-24T06:12:44.899Z,80
2016-10-24T06:13:44.882Z,88
2016-10-24T06:14:45.162Z,96
2016-10-24T06:15:44.826Z,104
2016-10-24T06:16:44.820Z,116
2016-10-24T06:17:45.114Z,128
2016-10-24T06:18:44.787Z,140
2016-10-24T06:19:44.770Z,156
2016-10-24T06:20:45.061Z,172
2016-10-24T06:21:44.739Z,184
2016-10-24T06:22:44.718Z,188
2016-10-24T06:23:44.705Z,188
2016-10-24T06:24:44.683Z,184
2016-10-24T06:25:44.662Z,180
2016-10-24T06:26:44.684Z,180
2016-10-24T06:27:44.947Z,192
2016-10-24T06:28:44.655Z,212
2016-10-24T06:29:44.605Z,232
2016-10-24T06:30:44.579Z,256
2016-10-24T06:31:44.575Z,284
2016-10-24T06:32:44.553Z,316
2016-10-24T06:33:44.536Z,340
2016-10-24T06:34:44.515Z,364
2016-10-24T06:35:44.495Z,380
2016-10-24T06:36:44.483Z,404
2016-10-24T06:37:44.788Z,428
2016-10-24T06:38:44.458Z,460
2016-10-24T06:39:44.761Z,488
2016-10-24T06:40:44.415Z,512
2016-10-24T06:41:44.403Z,528
2016-10-24T06:42:44.382Z,536
2016-10-24T06:43:44.727Z,544
2016-10-24T06:44:44.346Z,556
2016-10-24T06:45:44.330Z,576
2016-10-24T06:46:44.314Z,600
2016-10-24T06:47:44.305Z,636
2016-10-24T06:48:44.633Z,692
2016-10-24T06:49:44.289Z,748
2016-10-24T06:50:44.267Z,808
2016-10-24T06:51:44.239Z,876
2016-10-24T06:52:44.538Z,948
2016-10-24T06:53:44.204Z,1024
2016-10-24T06:54:44.505Z,1100
2016-10-24T06:55:44.173Z,1176
2016-10-24T06:56:44.498Z,1260
2016-10-24T06:57:44.144Z,1336
2016-10-24T06:58:44.122Z,1340
2016-10-24T06:59:44.114Z,1252
2016-10-24T07:00:44.092Z,1128
2016-10-24T07:01:44.068Z,1040
2016-10-24T07:02:44.061Z,984
2016-10-24T07:03:44.043Z,936
2016-10-24T07:04:44.548Z,888
2016-10-24T07:05:44.009Z,872
2016-10-24T07:06:44.005Z,892
2016-10-24T07:07:43.983Z,920
2016-10-24T07:08:43.960Z,920
2016-10-24T07:09:43.947Z,900
2016-10-24T07:10:44.251Z,884
2016-10-24T07:11:43.913Z,892
2016-10-24T07:12:44.229Z,924
2016-10-24T07:13:43.877Z,960
2016-10-24T07:14:43.864Z,980
2016-10-24T07:15:43.846Z,976
2016-10-24T07:16:43.830Z,932
2016-10-24T07:17:43.815Z,880
2016-10-24T07:18:43.810Z,856
2016-10-24T07:19:43.785Z,852
2016-10-24T07:20:43.770Z,872
2016-10-24T07:21:44.070Z,912
2016-10-24T07:22:43.741Z,988
2016-10-24T07:23:43.735Z,1080
2016-10-24T07:24:44.023Z,1164
2016-10-24T07:25:43.696Z,1208
2016-10-24T07:26:43.999Z,1212
2016-10-24T07:27:43.658Z,1172
2016-10-24T07:28:44.586Z,1092
2016-10-24T07:29:43.628Z,1028
2016-10-24T07:30:43.613Z,984
2016-10-24T07:31:43.595Z,956
2016-10-24T07:32:43.899Z,920
2016-10-24T07:33:43.559Z,896
2016-10-24T07:34:43.543Z,904
2016-10-24T07:35:43.555Z,916
2016-10-24T07:36:43.516Z,916
2016-10-24T07:37:43.539Z,900
2016-10-24T07:38:43.487Z,876
2016-10-24T07:39:43.472Z,840
2016-10-24T07:40:43.764Z,812
2016-10-24T07:41:43.776Z,796
2016-10-24T07:42:43.451Z,804
2016-10-24T07:43:43.743Z,824
2016-10-24T07:44:43.717Z,844
2016-10-24T07:45:43.703Z,864
2016-10-24T07:46:43.715Z,872
2016-10-24T07:47:43.347Z,864
2016-10-24T07:48:43.330Z,840
2016-10-24T07:49:43.355Z,808
2016-10-24T07:50:43.337Z,784
2016-10-24T07:51:43.281Z,760
2016-10-24T07:52:43.256Z,744
2016-10-24T07:53:43.245Z,740
2016-10-24T07:54:43.222Z,744
2016-10-24T07:55:43.841Z,752
2016-10-24T07:56:43.194Z,756
2016-10-24T07:57:43.490Z,760
2016-10-24T07:58:43.172Z,764
2016-10-24T07:59:43.143Z,780
2016-10-24T08:00:43.132Z,812
2016-10-24T08:01:43.125Z,848
2016-10-24T08:02:43.413Z,880
2016-10-24T08:03:43.083Z,916
2016-10-24T08:04:43.075Z,956
2016-10-24T08:05:43.388Z,988
2016-10-24T08:06:43.060Z,1008
2016-10-24T08:07:43.030Z,1012
2016-10-24T08:08:43.008Z,1000
2016-10-24T08:09:43.311Z,968
2016-10-24T08:10:42.987Z,940
2016-10-24T08:11:42.958Z,944
2016-10-24T08:12:42.991Z,988
2016-10-24T08:13:42.938Z,1068
2016-10-24T08:14:42.954Z,1152
2016-10-24T08:15:42.907Z,1192
2016-10-24T08:16:42.916Z,1200
2016-10-24T08:17:42.871Z,1200
2016-10-24T08:18:42.849Z,1176
2016-10-24T08:19:42.842Z,1152
2016-10-24T08:20:42.833Z,1164
2016-10-24T08:21:42.815Z,1196
2016-10-24T08:22:42.796Z,1244
2016-10-24T08:23:42.782Z,1308
2016-10-24T08:24:42.764Z,1368
2016-10-24T08:25:43.264Z,1392
2016-10-24T08:26:42.725Z,1360
2016-10-24T08:27:43.039Z,1288
2016-10-24T08:28:42.694Z,1216
2016-10-24T08:29:42.680Z,1152
2016-10-24T08:30:42.665Z,1120
2016-10-24T08:31:42.650Z,1124
2016-10-24T08:32:43.274Z,1172
2016-10-24T08:33:42.660Z,1220
2016-10-24T08:34:42.919Z,1272
2016-10-24T08:35:42.895Z,1352
2016-10-24T08:36:42.891Z,1456
2016-10-24T08:37:43.181Z,1564
2016-10-24T08:38:42.546Z,1640
2016-10-24T08:39:42.564Z,1692
2016-10-24T08:40:42.515Z,1708
2016-10-24T08:41:42.804Z,1696
2016-10-24T08:42:42.471Z,1696
2016-10-24T08:43:42.499Z,1736
2016-10-24T08:44:42.454Z,1804
2016-10-24T08:45:42.755Z,1896
2016-10-24T08:46:42.617Z,1956
2016-10-24T08:47:42.720Z,1992
2016-10-24T08:48:42.388Z,1992
2016-10-24T08:49:42.371Z,2000
2016-10-24T08:50:42.674Z,2036
2016-10-24T08:51:42.347Z,2096
2016-10-24T08:52:42.646Z,2148
2016-10-24T08:53:42.315Z,2168
2016-10-24T08:54:42.292Z,2160
2016-10-24T08:55:42.282Z,2108
2016-10-24T08:56:42.268Z,2076
2016-10-24T08:57:42.257Z,2048
2016-10-24T08:58:42.233Z,2040
2016-10-24T08:59:42.533Z,2020
2016-10-24T09:00:42.242Z,1996
2016-10-24T09:01:42.228Z,1960
2016-10-24T09:02:42.512Z,1916
2016-10-24T09:03:42.179Z,1900
2016-10-24T09:04:42.476Z,1912
2016-10-24T09:05:42.142Z,1892
2016-10-24T09:06:42.126Z,1844
2016-10-24T09:07:42.422Z,1788
2016-10-24T09:08:42.413Z,1764
2016-10-24T09:09:42.389Z,1752
2016-10-24T09:10:42.052Z,1760
2016-10-24T09:11:42.081Z,1808
2016-10-24T09:12:42.030Z,1860
2016-10-24T09:13:42.006Z,1912
2016-10-24T09:14:42.623Z,1980
2016-10-24T09:15:42.294Z,2036
2016-10-24T09:16:41.969Z,2144
2016-10-24T09:17:41.971Z,2248
2016-10-24T09:18:41.941Z,2384
2016-10-24T09:19:41.947Z,2488
2016-10-24T09:20:41.950Z,2560
2016-10-24T09:21:41.894Z,2628
2016-10-24T09:22:41.879Z,2668
2016-10-24T09:23:42.186Z,2704
2016-10-24T09:24:42.172Z,2712
2016-10-24T09:25:41.834Z,2680
2016-10-24T09:26:41.820Z,2584
2016-10-24T09:27:42.012Z,2448
2016-10-24T09:28:41.789Z,2280
2016-10-24T09:29:41.779Z,2152
2016-10-24T09:30:42.074Z,2036
2016-10-24T09:31:41.739Z,1912
2016-10-24T09:32:41.731Z,1800
2016-10-24T09:33:42.062Z,1708
2016-10-24T09:34:41.701Z,1648
2016-10-24T09:35:41.687Z,1640
2016-10-24T09:36:41.679Z,1664
2016-10-24T09:37:41.658Z,1728
2016-10-24T09:38:41.679Z,1808
2016-10-24T09:39:41.948Z,1920
2016-10-24T09:40:41.612Z,2064
2016-10-24T09:41:41.640Z,2200
2016-10-24T09:42:41.891Z,2384
2016-10-24T09:43:41.601Z,2600
2016-10-24T09:44:42.188Z,2736
2016-10-24T09:45:41.547Z,2748
2016-10-24T09:46:41.529Z,2672
2016-10-24T09:47:41.512Z,2520
2016-10-24T09:48:41.501Z,2380
2016-10-24T09:49:41.679Z,2260
2016-10-24T09:50:41.464Z,2164
2016-10-24T09:51:41.772Z,2152
2016-10-24T09:52:41.435Z,2220
2016-10-24T09:53:41.418Z,2332
2016-10-24T09:54:41.412Z,2444
2016-10-24T09:55:41.395Z,2552
2016-10-24T09:56:41.689Z,2604
2016-10-24T09:57:41.360Z,2608
2016-10-24T09:58:41.344Z,2604
2016-10-24T09:59:41.648Z,2672
2016-10-24T10:00:41.312Z,2732
2016-10-24T10:01:41.301Z,2776
2016-10-24T10:02:41.601Z,2760
2016-10-24T10:03:41.281Z,2760
2016-10-24T10:04:41.258Z,2720
2016-10-24T10:05:41.249Z,2632
2016-10-24T10:06:41.543Z,2540
2016-10-24T10:07:41.255Z,2488
2016-10-24T10:08:41.198Z,2480
2016-10-24T10:09:41.244Z,2468
2016-10-24T10:10:41.799Z,2452
2016-10-24T10:11:41.160Z,2428
2016-10-24T10:12:41.149Z,2424
2016-10-24T10:13:41.444Z,2420
2016-10-24T10:14:41.118Z,2428
2016-10-24T10:15:41.100Z,2412
2016-10-24T10:16:41.089Z,2392
2016-10-24T10:17:41.116Z,2388
2016-10-24T10:18:41.099Z,2416
2016-10-24T10:19:41.045Z,2412
2016-10-24T10:20:41.034Z,2368
2016-10-24T10:21:41.011Z,2312
2016-10-24T10:22:40.996Z,2248
2016-10-24T10:23:40.995Z,2180
2016-10-24T10:24:41.286Z,2128
2016-10-24T10:25:40.959Z,2076
2016-10-24T10:26:40.943Z,2004
2016-10-24T10:27:41.245Z,1904
2016-10-24T10:28:40.908Z,1748
2016-10-24T10:29:40.909Z,1584
2016-10-24T10:30:40.890Z,1428
2016-10-24T10:31:40.869Z,1320
2016-10-24T10:32:40.875Z,1284
2016-10-24T10:33:41.183Z,1292
2016-10-24T10:34:40.829Z,1316
2016-10-24T10:35:40.813Z,1332
2016-10-24T10:36:40.801Z,1324
2016-10-24T10:37:40.778Z,1320
2016-10-24T10:38:40.812Z,1344
2016-10-24T10:39:40.759Z,1388
2016-10-24T10:40:40.741Z,1444
2016-10-24T10:41:40.725Z,1484
2016-10-24T10:42:41.027Z,1524
2016-10-24T10:43:40.701Z,1576
2016-10-24T10:44:40.682Z,1648
2016-10-24T10:45:41.300Z,1736
2016-10-24T10:46:40.657Z,1828
2016-10-24T10:47:40.640Z,1912
2016-10-24T10:48:40.619Z,1996
2016-10-24T10:49:40.614Z,2072
2016-10-24T10:50:40.591Z,2108
2016-10-24T10:51:40.582Z,2112
2016-10-24T10:52:40.879Z,2136
2016-10-24T10:53:40.544Z,2192
2016-10-24T10:54:40.535Z,2280
2016-10-24T10:55:40.553Z,2380
2016-10-24T10:56:40.506Z,2448
2016-10-24T10:57:40.492Z,2464
2016-10-24T10:58:40.789Z,2360
2016-10-24T10:59:40.459Z,2208
2016-10-24T11:00:40.448Z,2152
2016-10-24T11:01:40.759Z,2184
2016-10-24T11:02:40.415Z,2216
2016-10-24T11:03:40.407Z,2212
2016-10-24T11:04:40.402Z,2124
2016-10-24T11:05:40.701Z,2084
2016-10-24T11:06:40.670Z,2164
2016-10-24T11:07:40.356Z,2412
2016-10-24T11:08:40.334Z,2736
2016-10-24T11:09:40.325Z,3040
2016-10-24T11:10:40.315Z,3220
2016-10-24T11:11:40.325Z,3228
2016-10-24T11:12:40.282Z,3252
2016-10-24T11:13:40.611Z,3168
2016-10-24T11:14:40.249Z,3056
2016-10-24T11:15:40.240Z,2940
2016-10-24T11:16:40.219Z,2800
2016-10-24T11:17:40.204Z,2656
2016-10-24T11:18:40.248Z,2544
2016-10-24T11:19:40.178Z,2436
2016-10-24T11:20:40.176Z,2240
2016-10-24T11:21:40.149Z,2072
2016-10-24T11:22:40.135Z,2012
2016-10-24T11:23:40.450Z,2060
2016-10-24T11:24:40.107Z,2192
2016-10-24T11:25:40.090Z,2408
2016-10-24T11:26:40.433Z,2684
2016-10-24T11:27:40.064Z,2892
2016-10-24T11:28:40.366Z,3028
2016-10-24T11:29:40.038Z,3100
2016-10-24T11:30:40.028Z,3176
2016-10-24T11:31:40.015Z,3244
2016-10-24T11:32:40.000Z,3304
2016-10-24T11:33:39.984Z,3300
2016-10-24T11:34:39.968Z,3224
2016-10-24T11:35:39.960Z,3096
2016-10-24T11:36:39.940Z,2924
2016-10-24T11:37:40.240Z,2656
2016-10-24T11:38:39.960Z,2396
2016-10-24T11:39:39.899Z,2280
2016-10-24T11:40:40.202Z,2248
2016-10-24T11:41:39.883Z,2260
2016-10-24T11:42:40.206Z,2232
2016-10-24T11:43:39.849Z,2196
2016-10-24T11:44:39.833Z,2196
2016-10-24T11:45:39.826Z,2280
2016-10-24T11:46:39.804Z,2424
2016-10-24T11:47:39.792Z,2524
2016-10-24T11:48:39.784Z,2576
2016-10-24T11:49:40.271Z,2704
2016-10-24T11:50:40.386Z,2880
2016-10-24T11:51:39.729Z,3160
2016-10-24T11:52:39.717Z,3488
2016-10-24T11:53:40.015Z,3928
2016-10-24T11:54:40.015Z,4388
2016-10-24T11:55:39.681Z,4752
2016-10-24T11:56:39.980Z,4940
2016-10-24T11:57:39.651Z,5012
2016-10-24T11:58:39.640Z,5032
2016-10-24T11:59:39.628Z,5200
2016-10-24T12:00:39.612Z,5252
2016-10-24T12:01:39.590Z,4984
2016-10-24T12:02:39.903Z,4332
2016-10-24T12:03:39.571Z,3616
2016-10-24T12:04:39.555Z,3080
2016-10-24T12:05:39.539Z,2652
2016-10-24T12:06:39.837Z,2316
2016-10-24T12:07:39.536Z,2044
2016-10-24T12:08:39.508Z,1896
2016-10-24T12:09:39.489Z,1884
2016-10-24T12:10:39.477Z,1872
2016-10-24T12:11:39.465Z,1880
2016-10-24T12:12:39.769Z,1876
2016-10-24T12:13:39.745Z,1740
2016-10-24T12:14:39.417Z,1592
2016-10-24T12:15:39.422Z,1412
2016-10-24T12:16:39.545Z,1244
2016-10-24T12:17:39.384Z,1140
2016-10-24T12:18:39.361Z,1112
2016-10-24T12:19:39.351Z,1172
2016-10-24T12:20:39.344Z,1308
2016-10-24T12:21:39.645Z,1468
2016-10-24T12:22:39.318Z,1580
2016-10-24T12:23:39.615Z,1684
2016-10-24T12:24:39.286Z,1812
2016-10-24T12:25:39.267Z,1944
2016-10-24T12:26:39.302Z,2132
2016-10-24T12:27:39.244Z,2316
2016-10-24T12:28:39.539Z,2312
2016-10-24T12:29:39.534Z,2288
2016-10-24T12:30:39.208Z,2256
2016-10-24T12:31:39.195Z,2220
2016-10-24T12:32:39.200Z,2136
2016-10-24T12:33:39.170Z,1948
2016-10-24T12:34:39.467Z,1708
2016-10-24T12:35:39.139Z,1572
2016-10-24T12:36:39.159Z,1444
2016-10-24T12:37:39.107Z,1304
2016-10-24T12:38:39.093Z,1216
2016-10-24T12:39:39.081Z,1168
2016-10-24T12:40:39.100Z,1152
2016-10-24T12:41:39.051Z,1140
2016-10-24T12:42:39.039Z,1204
2016-10-24T12:43:39.029Z,1328
2016-10-24T12:44:39.019Z,1368
2016-10-24T12:45:39.006Z,1312
2016-10-24T12:46:39.302Z,1368
2016-10-24T12:47:38.972Z,1452
2016-10-24T12:48:38.961Z,1332
2016-10-24T12:49:39.573Z,1324
2016-10-24T12:50:38.926Z,1440
2016-10-24T12:51:38.955Z,1548
2016-10-24T12:52:39.217Z,1636
2016-10-24T12:53:39.515Z,1664
2016-10-24T12:54:38.875Z,1816
2016-10-24T12:55:38.903Z,1940
2016-10-24T12:56:38.846Z,1980
2016-10-24T12:57:38.832Z,1868
2016-10-24T12:58:38.866Z,1716
2016-10-24T12:59:38.826Z,1736
2016-10-24T13:00:39.108Z,2004
2016-10-24T13:01:38.797Z,2360
2016-10-24T13:02:38.768Z,2572
2016-10-24T13:03:38.751Z,2556
2016-10-24T13:04:38.740Z,2440
2016-10-24T13:05:38.718Z,2460
2016-10-24T13:06:38.710Z,2552
2016-10-24T13:07:39.021Z,2580
2016-10-24T13:08:38.689Z,2476
2016-10-24T13:09:38.681Z,2288
2016-10-24T13:10:38.974Z,2260
2016-10-24T13:11:38.954Z,2144
2016-10-24T13:12:38.630Z,1880
2016-10-24T13:13:38.929Z,1696
2016-10-24T13:14:38.605Z,1616
2016-10-24T13:15:38.586Z,1780
2016-10-24T13:16:38.893Z,1972
2016-10-24T13:17:38.564Z,2016
2016-10-24T13:18:39.173Z,1712
2016-10-24T13:19:38.538Z,1536
2016-10-24T13:20:38.567Z,1520
2016-10-24T13:21:38.503Z,1508
2016-10-24T13:22:38.487Z,1372
2016-10-24T13:23:38.477Z,1304
2016-10-24T13:24:38.480Z,1340
2016-10-24T13:25:38.455Z,1500
2016-10-24T13:26:38.434Z,1600
2016-10-24T13:27:38.421Z,1580
2016-10-24T13:28:38.757Z,1584
2016-10-24T13:29:38.390Z,1532
2016-10-24T13:30:38.404Z,1688
2016-10-24T13:31:38.376Z,1756
2016-10-24T13:32:38.360Z,1860
2016-10-24T13:33:38.350Z,1780
2016-10-24T13:34:38.329Z,1772
2016-10-24T13:35:38.626Z,1912
2016-10-24T13:36:38.316Z,1888
2016-10-24T13:37:38.286Z,1696
2016-10-24T13:38:38.595Z,1636
2016-10-24T13:39:38.582Z,1412
2016-10-24T13:40:38.302Z,1276
2016-10-24T13:41:38.538Z,1224
2016-10-24T13:42:38.216Z,1200
2016-10-24T13:43:38.214Z,1200
2016-10-24T13:44:38.183Z,1260
2016-10-24T13:45:38.225Z,1268
2016-10-24T13:46:38.476Z,1240
2016-10-24T13:47:38.455Z,1152
2016-10-24T13:48:38.477Z,1068
2016-10-24T13:49:38.636Z,1120
2016-10-24T13:50:38.136Z,1136
2016-10-24T13:51:38.090Z,1040
2016-10-24T13:52:38.078Z,1040
2016-10-24T13:53:38.699Z,1080
2016-10-24T13:54:38.359Z,1096
2016-10-24T13:55:38.038Z,1044
2016-10-24T13:56:38.023Z,1196
2016-10-24T13:57:38.009Z,1196
2016-10-24T13:58:37.991Z,1200